KART/ART METAR and TAF weather

Enter ICAO airport designator
Station Type Date Time Source
KART METAR 2020/10/20 16:56 UTC NOAA

KART 201656Z AUTO 08004KT 10SM OVC006 08/06 A3027 RMK AO2 SLP251 T00830061 $


Station Type Date Time Source
KART Decoded METAR 2020/10/20 16:56 UTC NOAA

WATERTOWN INTERNATIONAL AIRPORT, NY, United States (KART) 43-59N 076-02W 100M
Oct 20, 2020 - 12:56 PM EDT / 2020.10.20 1656 UTC
Wind: from the E (080 degrees) at 5 MPH (4 KT):0
Visibility: 10 mile(s):0
Sky conditions: overcast
Temperature: 46.9 F (8.3 C)
Dew Point: 43.0 F (6.1 C)
Relative Humidity: 86%
Pressure (altimeter): 30.27 in. Hg (1025 hPa)
ob: KART 201656Z AUTO 08004KT 10SM OVC006 08/06 A3027 RMK AO2 SLP251 T00830061
cycle: 17

Station Type Date Time Source
KART TAF 2020/10/20 15:40 UTC NOAA

TAF
AMD KART 201438Z 2015/2112 02007KT 6SM -SHRA BR OVC006
FM201700 02006KT P6SM OVC015
FM202000 03006KT P6SM OVC025
FM202300 05005KT P6SM BKN040
FM211000 09007KT 6SM -SHRA OVC025 WS015/19045KT

Example: see airport list